Montbello, Colorado
Current Conditions -  °F | °C
As of 10:58 PM on Wednesday 28 Jan 2015 (Local Time) from KBKF Reporting Station
Scattered Clouds Scattered Clouds  
Wind Chill: 37°   Ceiling: Unl
Heat Index: 37°   Visibility: 10mi
Dew Point: 30°   Wind: 1mph
Humidity: 76%   Direction: 350°N
Pressure: 30.35"   Gusts: NA
Location:  39.7897°N, 104.858°W
Report Text: KBKF 290558Z 35001KT 10SM SCT095 03/M01 A3035 RMK AO2A SLP255 T00251013 10105 20001 52027
Loading
Personal Weather Stations






























Interactive Weather Map New forecast layout! Learn more

10-Day Weather Forecast

Advertisements
Track Severe Weather on mobile